Time;durP1;ratioP1;P1;durP2;ratioP2;P2;SDS_P1;SDS_P2;PMS_P1;PMS_P2;Temp;Humidity;BMP_temperature;BMP_pressure;BME280_temperature;BME280_humidity;BME280_pressure;Samples;Min_cycle;Max_cycle;Signal;HPM_P1;HPM_P2
2021/03/26 00:01:07;;;;;;;1999.90;999.90;;;;;;;9.78;100.00;-18169.78;5021083;28;20193;-29
2021/03/26 00:03:56;;;;;;;1999.90;999.90;;;;;;;9.67;100.00;-18166.97;5020531;28;20201;-30
2021/03/26 00:06:46;;;;;;;1999.90;999.90;;;;;;;9.43;100.00;-18160.53;5019966;28;20261;-29
2021/03/26 00:09:36;;;;;;;1999.90;999.90;;;;;;;9.63;100.00;-18165.91;5019287;28;20289;-29
2021/03/26 00:12:24;;;;;;;1999.90;999.90;;;;;;;9.72;100.00;-18168.16;5019196;28;20190;-29
2021/03/26 00:15:12;;;;;;;1999.90;999.90;;;;;;;9.71;100.00;-18168.03;5019894;28;20626;-29
2021/03/26 00:17:58;;;;;;;1999.90;999.90;;;;;;;9.72;100.00;-18168.31;5019435;28;20280;-29
2021/03/26 00:20:46;;;;;;;1999.90;999.90;;;;;;;9.60;100.00;-18165.09;5019644;28;20197;-29
2021/03/26 00:23:36;;;;;;;1999.90;999.90;;;;;;;9.45;100.00;-18161.22;5019428;28;20498;-29
2021/03/26 00:26:23;;;;;;;1999.90;999.90;;;;;;;9.31;100.00;-18157.47;5022647;28;20205;-29
2021/03/26 00:29:12;;;;;;;1999.90;999.90;;;;;;;9.16;100.00;-18153.44;5019628;28;20209;-29
2021/03/26 00:31:59;;;;;;;1999.90;999.90;;;;;;;9.22;100.00;-18155.06;5021000;28;20218;-29
2021/03/26 00:34:45;;;;;;;1999.90;999.90;;;;;;;9.16;100.00;-18153.59;5020474;28;20229;-29
2021/03/26 00:37:34;;;;;;;1999.90;999.90;;;;;;;9.17;100.00;-18153.84;5019627;28;20201;-29
2021/03/26 00:40:25;;;;;;;1999.90;999.90;;;;;;;9.07;100.00;-18151.16;5021723;28;20254;-29
2021/03/26 00:43:11;;;;;;;1999.90;999.90;;;;;;;9.39;100.00;-18159.59;5020428;28;20213;-29
2021/03/26 00:45:59;;;;;;;1999.90;999.90;;;;;;;9.30;100.00;-18157.19;5019162;28;20547;-29
2021/03/26 00:48:46;;;;;;;1999.90;999.90;;;;;;;9.30;100.00;-18157.19;5021604;28;20193;-29
2021/03/26 00:51:33;;;;;;;1999.90;999.90;;;;;;;9.25;100.00;-18155.84;5019942;28;20198;-29
2021/03/26 00:54:21;;;;;;;1999.90;999.90;;;;;;;9.19;100.00;-18154.38;5020461;28;20205;-29
2021/03/26 00:57:08;;;;;;;1999.90;999.90;;;;;;;8.99;100.00;-18149.03;5020859;28;20253;-29
2021/03/26 00:59:59;;;;;;;1999.90;999.90;;;;;;;9.10;100.00;-18151.97;5019592;28;20206;-29
2021/03/26 01:02:44;;;;;;;1999.90;999.90;;;;;;;8.96;100.00;-18148.38;5018513;28;20197;-29
2021/03/26 01:05:37;;;;;;;1999.90;999.90;;;;;;;9.07;100.00;-18151.03;5018812;28;20209;-29
2021/03/26 01:08:23;;;;;;;1999.90;999.90;;;;;;;9.07;100.00;-18151.03;5019193;28;20218;-29
2021/03/26 01:11:16;;;;;;;1999.90;999.90;;;;;;;9.28;100.00;-18156.78;5018753;28;20340;-29
2021/03/26 01:14:03;;;;;;;1999.90;999.90;;;;;;;9.12;100.00;-18152.50;5018636;28;20341;-29
2021/03/26 01:16:50;;;;;;;1999.90;999.90;;;;;;;9.07;100.00;-18151.03;5019413;28;20204;-29
2021/03/26 01:19:41;;;;;;;1999.90;999.90;;;;;;;9.02;100.00;-18149.84;5019648;28;20225;-29
2021/03/26 01:22:29;;;;;;;1999.90;999.90;;;;;;;9.07;100.00;-18151.03;5021827;28;20194;-29
2021/03/26 01:25:19;;;;;;;1999.90;999.90;;;;;;;9.10;100.00;-18151.84;5018311;28;20697;-29
2021/03/26 01:28:14;;;;;;;1999.90;999.90;;;;;;;9.17;100.00;-18153.84;5019994;28;20608;-29
2021/03/26 01:31:00;;;;;;;1999.90;999.90;;;;;;;9.30;100.00;-18157.19;5018190;28;20201;-29
2021/03/26 01:33:47;;;;;;;1999.90;999.90;;;;;;;8.93;100.00;-18147.44;5018104;28;20510;-29
2021/03/26 01:36:36;;;;;;;1999.90;999.90;;;;;;;9.05;100.00;-18150.50;5017912;28;20688;-29
2021/03/26 01:39:24;;;;;;;1999.90;999.90;;;;;;;8.98;100.00;-18148.75;5018278;28;20288;-29
2021/03/26 01:42:23;;;;;;;1999.90;999.90;;;;;;;8.97;100.00;-18148.63;5018362;28;20337;-29
2021/03/26 01:45:15;;;;;;;1999.90;999.90;;;;;;;9.06;100.00;-18150.78;5019957;28;20217;-29
2021/03/26 01:48:01;;;;;;;1999.90;999.90;;;;;;;8.92;100.00;-18147.16;5018577;28;20217;-29
2021/03/26 01:50:47;;;;;;;1999.90;999.90;;;;;;;8.94;100.00;-18147.69;5019559;28;20314;-29
2021/03/26 01:53:33;;;;;;;1999.90;999.90;;;;;;;8.82;100.00;-18144.47;5018341;28;20213;-29
2021/03/26 01:56:21;;;;;;;1999.90;999.90;;;;;;;9.09;100.00;-18151.72;5019284;28;20260;-29
2021/03/26 01:59:09;;;;;;;1999.90;999.90;;;;;;;8.91;100.00;-18147.03;5017928;28;20228;-29
2021/03/26 02:01:58;;;;;;;1999.90;999.90;;;;;;;8.94;100.00;-18147.81;5018357;28;20499;-29
2021/03/26 02:04:47;;;;;;;1999.90;999.90;;;;;;;8.87;100.00;-18145.81;5018090;28;20202;-29
2021/03/26 02:07:33;;;;;;;1999.90;999.90;;;;;;;8.99;100.00;-18149.03;5017388;28;20489;-29
2021/03/26 02:10:21;;;;;;;1999.90;999.90;;;;;;;8.98;100.00;-18148.75;5018537;28;20202;-29
2021/03/26 02:13:16;;;;;;;1999.90;999.90;;;;;;;8.86;100.00;-18145.69;5018382;28;20226;-29
2021/03/26 02:16:08;;;;;;;1999.90;999.90;;;;;;;8.96;100.00;-18148.22;5017691;28;20207;-29
2021/03/26 02:18:57;;;;;;;1999.90;999.90;;;;;;;8.87;100.00;-18145.81;5017085;28;20521;-29
2021/03/26 02:21:44;;;;;;;1999.90;999.90;;;;;;;8.75;100.00;-18142.59;5018935;28;20206;-29
2021/03/26 02:24:30;;;;;;;1999.90;999.90;;;;;;;8.95;100.00;-18147.97;5017196;28;20205;-29
2021/03/26 02:27:20;;;;;;;1999.90;999.90;;;;;;;8.79;100.00;-18143.69;5020510;28;20221;-29
2021/03/26 02:30:13;;;;;;;1999.90;999.90;;;;;;;8.75;100.00;-18142.75;5017426;28;20609;-29
2021/03/26 02:32:59;;;;;;;1999.90;999.90;;;;;;;8.87;100.00;-18145.81;5019601;28;20320;-29
2021/03/26 02:35:49;;;;;;;1999.90;999.90;;;;;;;8.79;100.00;-18143.81;5017189;28;20292;-29
2021/03/26 02:38:36;;;;;;;1999.90;999.90;;;;;;;8.92;100.00;-18147.28;5016828;28;20230;-29
2021/03/26 02:41:27;;;;;;;1999.90;999.90;;;;;;;8.69;100.00;-18141.00;5017036;28;20202;-29
2021/03/26 02:44:25;;;;;;;1999.90;999.90;;;;;;;9.10;100.00;-18151.97;5016909;28;20201;-29
2021/03/26 02:47:24;;;;;;;1999.90;999.90;;;;;;;8.70;100.00;-18141.41;5016552;28;20206;-29
2021/03/26 02:50:14;;;;;;;1999.90;999.90;;;;;;;8.81;100.00;-18144.34;5017068;28;20332;-29
2021/03/26 02:53:05;;;;;;;1999.90;999.90;;;;;;;8.67;100.00;-18140.47;5017203;28;20268;-29
2021/03/26 02:55:57;;;;;;;1999.90;999.90;;;;;;;8.75;100.00;-18142.75;5018487;28;20621;-29
2021/03/26 02:58:50;;;;;;;1999.90;999.90;;;;;;;8.68;100.00;-18140.72;5016696;28;20225;-29
2021/03/26 03:01:40;;;;;;;1999.90;999.90;;;;;;;8.63;100.00;-18139.66;5017612;28;20353;-29
2021/03/26 03:04:31;;;;;;;1999.90;999.90;;;;;;;8.53;100.00;-18136.97;5017088;28;20293;-29
2021/03/26 03:07:23;;;;;;;1999.90;999.90;;;;;;;8.55;100.00;-18137.53;5017725;28;20503;-29
2021/03/26 03:10:20;;;;;;;1999.90;999.90;;;;;;;8.70;100.00;-18141.25;5026045;28;20450;-29
2021/03/26 03:13:11;;;;;;;1999.90;999.90;;;;;;;8.54;100.00;-18137.13;5017384;28;20605;-29
2021/03/26 03:16:05;;;;;;;1999.90;999.90;;;;;;;8.51;100.00;-18136.44;5017280;28;20586;-29
2021/03/26 03:18:58;;;;;;;1999.90;999.90;;;;;;;8.65;100.00;-18140.06;5016915;28;20512;-29
2021/03/26 03:21:49;;;;;;;1999.90;999.90;;;;;;;8.56;100.00;-18137.66;5019069;28;20612;-29
2021/03/26 03:24:40;;;;;;;1999.90;999.90;;;;;;;8.46;100.00;-18135.09;5017459;28;20285;-29
2021/03/26 03:27:39;;;;;;;1999.90;999.90;;;;;;;8.42;100.00;-18134.03;5017536;28;20193;-29
2021/03/26 03:30:35;;;;;;;1999.90;999.90;;;;;;;8.60;100.00;-18138.84;5016842;28;20490;-29
2021/03/26 03:33:30;;;;;;;1999.90;999.90;;;;;;;8.48;100.00;-18135.63;5017162;28;20229;-29
2021/03/26 03:36:21;;;;;;;1999.90;999.90;;;;;;;8.71;100.00;-18141.53;5018809;28;20202;-29
2021/03/26 03:39:13;;;;;;;1999.90;999.90;;;;;;;8.41;100.00;-18133.75;5021428;28;20229;-29
2021/03/26 03:42:02;;;;;;;1999.90;999.90;;;;;;;8.48;100.00;-18135.63;5021678;28;20696;-29
2021/03/26 03:44:59;;;;;;;1999.90;999.90;;;;;;;8.50;100.00;-18136.19;5020401;28;20376;-29
2021/03/26 03:47:50;;;;;;;1999.90;999.90;;;;;;;8.61;100.00;-18139.00;5019952;28;20206;-29
2021/03/26 03:50:41;;;;;;;1999.90;999.90;;;;;;;8.44;100.00;-18134.56;5022743;28;20209;-29
2021/03/26 03:53:31;;;;;;;1999.90;999.90;;;;;;;8.53;100.00;-18136.97;5020736;28;20270;-29
2021/03/26 03:56:27;;;;;;;1999.90;999.90;;;;;;;8.40;100.00;-18133.38;5019985;28;20206;-28
2021/03/26 03:59:20;;;;;;;1999.90;999.90;;;;;;;8.46;100.00;-18135.09;5019904;28;20229;-29
2021/03/26 04:02:23;;;;;;;1999.90;999.90;;;;;;;8.42;100.00;-18134.03;5020093;28;20588;-29
2021/03/26 04:05:15;;;;;;;1999.90;999.90;;;;;;;8.56;100.00;-18137.78;5020534;28;20617;-29
2021/03/26 04:08:08;;;;;;;1999.90;999.90;;;;;;;8.54;100.00;-18137.25;5023152;28;20202;-29
2021/03/26 04:11:01;;;;;;;1999.90;999.90;;;;;;;8.50;100.00;-18136.03;5019952;28;20202;-29
2021/03/26 04:13:54;;;;;;;1999.90;999.90;;;;;;;8.62;100.00;-18139.38;5020019;28;20198;-29
2021/03/26 04:16:44;;;;;;;1999.90;999.90;;;;;;;8.54;100.00;-18137.13;5021492;28;20297;-29
2021/03/26 04:19:36;;;;;;;1999.90;999.90;;;;;;;8.61;100.00;-18139.13;5019836;28;20250;-29
2021/03/26 04:22:26;;;;;;;1999.90;999.90;;;;;;;8.44;100.00;-18134.44;5019476;28;20214;-29
2021/03/26 04:25:20;;;;;;;1999.90;999.90;;;;;;;8.41;100.00;-18133.63;5019803;28;20265;-29
2021/03/26 04:28:09;;;;;;;1999.90;999.90;;;;;;;8.76;100.00;-18142.88;5026496;28;20205;-29
2021/03/26 04:31:01;;;;;;;1999.90;999.90;;;;;;;8.90;100.00;-18146.75;5019579;28;20217;-29
2021/03/26 04:33:47;;;;;;;1999.90;999.90;;;;;;;8.59;100.00;-18138.47;5019031;28;20246;-29
2021/03/26 04:36:43;;;;;;;1999.90;999.90;;;;;;;8.76;100.00;-18142.88;5019676;28;20221;-29
2021/03/26 04:39:38;;;;;;;1999.90;999.90;;;;;;;8.54;100.00;-18137.25;5018408;28;20233;-29
2021/03/26 04:42:31;;;;;;;1999.90;999.90;;;;;;;8.53;100.00;-18136.84;5019081;28;20333;-29
2021/03/26 04:45:25;;;;;;;1999.90;999.90;;;;;;;8.51;100.00;-18136.44;5019314;28;20267;-29
2021/03/26 04:48:20;;;;;;;1999.90;999.90;;;;;;;8.41;100.00;-18133.63;5019285;28;20269;-29
2021/03/26 04:51:13;;;;;;;1999.90;999.90;;;;;;;8.56;100.00;-18137.78;5043577;28;20600;-29
2021/03/26 04:54:04;;;;;;;1999.90;999.90;;;;;;;8.57;100.00;-18138.06;5038984;28;20256;-29
2021/03/26 04:56:55;;;;;;;1999.90;999.90;;;;;;;8.55;100.00;-18137.53;5038259;28;20252;-29
2021/03/26 04:59:50;;;;;;;1999.90;999.90;;;;;;;8.61;100.00;-18139.13;5039683;28;20295;-29
2021/03/26 05:02:41;;;;;;;1999.90;999.90;;;;;;;8.42;100.00;-18134.03;5038394;28;20204;-29
2021/03/26 05:05:28;;;;;;;1999.90;999.90;;;;;;;8.55;100.00;-18137.53;5039918;28;20221;-29
2021/03/26 05:08:16;;;;;;;1999.90;999.90;;;;;;;8.47;100.00;-18135.38;5038387;28;20260;-30
2021/03/26 05:11:03;;;;;;;1999.90;999.90;;;;;;;8.48;100.00;-18135.63;5038730;28;20221;-29
2021/03/26 05:13:55;;;;;;;1999.90;999.90;;;;;;;8.51;100.00;-18136.31;5038994;28;20201;-29
2021/03/26 05:16:52;;;;;;;1999.90;999.90;;;;;;;8.56;100.00;-18137.66;5038649;28;20201;-29
2021/03/26 05:19:43;;;;;;;1999.90;999.90;;;;;;;8.57;100.00;-18137.91;5038273;28;20225;-29
2021/03/26 05:22:40;;;;;;;1999.90;999.90;;;;;;;8.59;100.00;-18138.47;5038594;28;20252;-29
2021/03/26 05:25:40;;;;;;;1999.90;999.90;;;;;;;8.34;100.00;-18131.91;5038104;28;20205;-29
2021/03/26 05:28:41;;;;;;;1999.90;999.90;;;;;;;8.49;100.00;-18135.91;5038602;28;20209;-30
2021/03/26 05:31:49;;;;;;;1999.90;999.90;;;;;;;8.45;100.00;-18134.69;5038461;28;20297;-29
2021/03/26 05:34:45;;;;;;;1999.90;999.90;;;;;;;8.53;100.00;-18136.84;5040740;28;20237;-30
2021/03/26 05:37:35;;;;;;;1999.90;999.90;;;;;;;8.39;100.00;-18133.22;5038736;28;20698;-29
2021/03/26 05:40:51;;;;;;;1999.90;999.90;;;;;;;8.51;100.00;-18136.31;5040055;28;20644;-30
2021/03/26 05:44:06;;;;;;;1999.90;999.90;;;;;;;8.76;100.00;-18142.88;5017979;28;20205;-29
2021/03/26 05:47:37;;;;;;;1999.90;999.90;;;;;;;8.62;100.00;-18139.38;5018048;28;20201;-29
2021/03/26 05:50:40;;;;;;;1999.90;999.90;;;;;;;8.71;100.00;-18141.66;4938369;29;20247;-30
2021/03/26 05:53:38;;;;;;;1999.90;999.90;;;;;;;8.99;100.00;-18149.03;5017905;28;20197;-30
2021/03/26 05:56:33;;;;;;;1999.90;999.90;;;;;;;8.73;100.00;-18142.06;5017856;28;20210;-30
2021/03/26 05:59:33;;;;;;;1999.90;999.90;;;;;;;9.00;100.00;-18149.28;5017683;28;20316;-30
2021/03/26 06:03:01;;;;;;;1999.90;999.90;;;;;;;8.99;100.00;-18149.03;5018754;28;20205;-30
2021/03/26 06:06:13;;;;;;;1999.90;999.90;;;;;;;8.85;100.00;-18145.28;4977028;28;20294;-30
2021/03/26 06:09:26;;;;;;;1999.90;999.90;;;;;;;9.18;100.00;-18154.13;4977409;28;20227;-30
2021/03/26 06:12:47;;;;;;;1999.90;999.90;;;;;;;9.41;100.00;-18160.00;5037351;28;20620;-30
2021/03/26 06:16:06;;;;;;;1999.90;999.90;;;;;;;9.21;100.00;-18154.91;5001150;28;20588;-29
2021/03/26 06:19:37;;;;;;;1999.90;999.90;;;;;;;9.06;100.00;-18150.91;5036672;28;20796;-29
2021/03/26 06:22:34;;;;;;;1999.90;999.90;;;;;;;9.24;100.00;-18155.59;5038639;28;20197;-29
2021/03/26 06:25:39;;;;;;;1999.90;999.90;;;;;;;9.64;100.00;-18166.28;5038357;28;20260;-30
2021/03/26 06:28:40;;;;;;;1999.90;999.90;;;;;;;9.42;100.00;-18160.41;5037959;28;20201;-30
2021/03/26 06:32:10;;;;;;;1999.90;999.90;;;;;;;9.58;100.00;-18164.69;5042246;28;20256;-30
2021/03/26 06:35:39;;;;;;;1999.90;999.90;;;;;;;9.72;100.00;-18168.31;5047485;28;20228;-30
2021/03/26 06:38:50;;;;;;;1999.90;999.90;;;;;;;9.48;100.00;-18161.88;5053884;28;20199;-30
2021/03/26 06:41:53;;;;;;;1999.90;999.90;;;;;;;9.61;100.00;-18165.34;5057420;28;20201;-30
2021/03/26 06:45:21;;;;;;;1999.90;999.90;;;;;;;10.35;100.00;-18185.03;5057872;28;20199;-29
2021/03/26 06:48:20;;;;;;;1999.90;999.90;;;;;;;10.66;100.00;-18193.06;4949998;28;20817;-30
2021/03/26 06:51:38;;;;;;;1999.90;999.90;;;;;;;11.07;100.00;-18203.88;5037242;28;20265;-30
2021/03/26 06:54:50;;;;;;;1999.90;999.90;;;;;;;11.20;100.00;-18207.22;5005585;28;20339;-30
2021/03/26 06:57:59;;;;;;;1999.90;999.90;;;;;;;11.89;100.00;-18225.38;5017052;28;20245;-30
2021/03/26 07:01:02;;;;;;;1999.90;999.90;;;;;;;11.43;100.00;-18213.22;5017494;28;20256;-30
2021/03/26 07:04:42;;;;;;;1999.90;999.90;;;;;;;12.18;100.00;-18233.13;5023482;28;20320;-31
2021/03/26 07:07:48;;;;;;;1999.90;999.90;;;;;;;12.74;100.00;-18247.94;4960787;28;20204;-28
2021/03/26 07:10:48;;;;;;;1999.90;999.90;;;;;;;12.76;100.00;-18248.34;5035569;28;20205;-30
2021/03/26 07:14:01;;;;;;;1999.90;999.90;;;;;;;12.25;100.00;-18234.88;5041671;28;20201;-31
2021/03/26 07:17:07;;;;;;;1999.90;999.90;;;;;;;12.21;100.00;-18233.81;5040492;28;20296;-30
2021/03/26 07:20:18;;;;;;;1999.90;999.90;;;;;;;12.62;100.00;-18244.63;5039616;28;20284;-30
2021/03/26 07:23:58;;;;;;;1999.90;999.90;;;;;;;12.38;100.00;-18238.34;5040110;28;20707;-28
2021/03/26 07:27:14;;;;;;;1999.90;999.90;;;;;;;12.44;100.00;-18239.94;5041043;28;20296;-30
2021/03/26 07:30:18;;;;;;;1999.90;999.90;;;;;;;13.29;100.00;-18262.22;5039842;28;20276;-28
2021/03/26 07:33:25;;;;;;;1999.90;999.90;;;;;;;13.74;100.00;-18274.09;5041211;28;20240;-28
2021/03/26 07:36:43;;;;;;;1999.90;999.90;;;;;;;12.82;100.00;-18249.94;5038311;28;20204;-29
2021/03/26 07:39:43;;;;;;;1999.90;999.90;;;;;;;12.98;100.00;-18254.09;5038833;28;20500;-28
2021/03/26 07:42:48;;;;;;;1999.90;999.90;;;;;;;13.60;100.00;-18270.50;5043878;28;20245;-29
2021/03/26 07:45:49;;;;;;;1999.90;999.90;;;;;;;13.31;100.00;-18262.91;5051589;28;20204;-29
2021/03/26 07:49:05;;;;;;;1999.90;999.90;;;;;;;13.38;100.00;-18264.78;5049461;28;20197;-29
2021/03/26 07:52:01;;;;;;;1999.90;999.90;;;;;;;13.39;100.00;-18265.03;5050266;28;20305;-29
2021/03/26 07:55:05;;;;;;;1999.90;999.90;;;;;;;12.85;100.00;-18250.63;5042846;28;20209;-31
2021/03/26 07:58:41;;;;;;;1999.90;999.90;;;;;;;13.47;100.00;-18266.91;5041374;28;20204;-28
2021/03/26 08:01:47;;;;;;;1999.90;999.90;;;;;;;12.68;100.00;-18246.34;5040112;28;20603;-31
2021/03/26 08:04:43;;;;;;;1999.90;999.90;;;;;;;13.24;100.00;-18260.91;5041173;28;20226;-28
2021/03/26 08:07:53;;;;;;;1999.90;999.90;;;;;;;14.33;100.00;-18289.56;5048753;28;20233;-29
2021/03/26 08:10:51;;;;;;;1999.90;999.90;;;;;;;14.88;100.00;-18303.97;5039968;28;20340;-28
2021/03/26 08:13:57;;;;;;;1999.90;999.90;;;;;;;13.52;100.00;-18268.38;5038289;28;20481;-29
2021/03/26 08:17:19;;;;;;;1999.90;999.90;;;;;;;13.84;100.00;-18276.78;5037994;28;20260;-29
2021/03/26 08:20:16;;;;;;;1999.90;999.90;;;;;;;14.59;97.87;-18296.50;5039367;28;20229;-29
2021/03/26 08:23:32;;;;;;;1999.90;999.90;;;;;;;13.84;98.79;-18276.78;5039553;28;20217;-29
2021/03/26 08:26:34;;;;;;;1999.90;999.90;;;;;;;14.50;100.00;-18294.09;5040766;28;20260;-29
2021/03/26 08:29:31;;;;;;;1999.90;999.90;;;;;;;14.13;100.00;-18284.50;5019890;28;20505;-29
2021/03/26 08:32:44;;;;;;;1999.90;999.90;;;;;;;14.85;100.00;-18303.16;5028707;28;20198;-29
2021/03/26 08:36:21;;;;;;;1999.90;999.90;;;;;;;14.62;98.51;-18297.31;5037975;28;20727;-28
2021/03/26 08:39:29;;;;;;;1999.90;999.90;;;;;;;15.00;96.82;-18307.16;5023406;28;20238;-29
2021/03/26 08:42:21;;;;;;;1999.90;999.90;;;;;;;16.20;89.78;-18338.72;5038441;28;20220;-29
2021/03/26 08:45:25;;;;;;;1999.90;999.90;;;;;;;16.00;87.10;-18333.53;5041660;28;20326;-28
2021/03/26 08:48:29;;;;;;;1999.90;999.90;;;;;;;15.95;85.42;-18332.19;5038142;28;20210;-28
2021/03/26 08:51:33;;;;;;;1999.90;999.90;;;;;;;14.79;93.45;-18301.81;5039103;28;20292;-31
2021/03/26 08:54:36;;;;;;;1999.90;999.90;;;;;;;16.13;90.82;-18336.84;5037814;28;20197;-28
2021/03/26 08:57:32;;;;;;;1999.90;999.90;;;;;;;15.10;94.52;-18309.97;5037570;28;20206;-29
2021/03/26 09:00:43;;;;;;;1999.90;999.90;;;;;;;15.40;89.12;-18317.81;5038388;28;20278;-30
2021/03/26 09:04:01;;;;;;;1999.90;999.90;;;;;;;15.85;85.80;-18329.66;5032843;28;20279;-28
2021/03/26 09:07:06;;;;;;;1999.90;999.90;;;;;;;15.05;88.05;-18308.50;5033346;28;20212;-28
2021/03/26 09:10:21;;;;;;;1999.90;999.90;;;;;;;15.92;83.77;-18331.41;5036813;28;20530;-28
2021/03/26 09:13:23;;;;;;;1999.90;999.90;;;;;;;14.70;86.89;-18299.44;5013204;28;20331;-28
2021/03/26 09:16:16;;;;;;;1999.90;999.90;;;;;;;15.22;81.24;-18313.00;5038434;28;20231;-29
2021/03/26 09:19:11;;;;;;;1999.90;999.90;;;;;;;16.19;78.38;-18338.56;5037403;28;20496;-28
2021/03/26 09:22:13;;;;;;;1999.90;999.90;;;;;;;16.03;79.66;-18334.31;5037243;28;20223;-30
2021/03/26 09:25:22;;;;;;;1999.90;999.90;;;;;;;16.44;75.13;-18345.09;5036912;28;20619;-28
2021/03/26 09:28:14;;;;;;;1999.90;999.90;;;;;;;15.52;77.25;-18321.00;5036284;28;20446;-28
2021/03/26 09:31:06;;;;;;;1999.90;999.90;;;;;;;15.85;77.52;-18329.66;5036987;28;20204;-29
2021/03/26 09:33:59;;;;;;;1999.90;999.90;;;;;;;16.00;75.91;-18333.38;5036810;28;20247;-28
2021/03/26 09:37:09;;;;;;;1999.90;999.90;;;;;;;15.66;73.89;-18324.47;5036861;28;20195;-29
2021/03/26 09:40:37;;;;;;;1999.90;999.90;;;;;;;16.76;71.07;-18353.34;5037627;28;20236;-28
2021/03/26 09:43:28;;;;;;;1999.90;999.90;;;;;;;16.53;70.63;-18347.34;5037291;28;20317;-29
2021/03/26 09:46:21;;;;;;;1999.90;999.90;;;;;;;16.45;70.76;-18345.22;5036799;28;20337;-29
2021/03/26 09:49:17;;;;;;;1999.90;999.90;;;;;;;16.70;67.25;-18351.88;5036062;28;20204;-29
2021/03/26 09:52:16;;;;;;;1999.90;999.90;;;;;;;15.79;69.81;-18327.94;5036501;28;20200;-29
2021/03/26 09:55:10;;;;;;;1999.90;999.90;;;;;;;16.05;70.51;-18334.72;5036992;28;20356;-29
2021/03/26 09:58:04;;;;;;;1999.90;999.90;;;;;;;17.30;66.31;-18367.44;5039436;28;20296;-29
2021/03/26 10:00:59;;;;;;;1999.90;999.90;;;;;;;17.86;65.16;-18382.19;5036085;28;20744;-29
2021/03/26 10:03:54;;;;;;;1999.90;999.90;;;;;;;16.34;66.40;-18342.44;5036872;28;20340;-29
2021/03/26 10:07:14;;;;;;;1999.90;999.90;;;;;;;16.65;67.17;-18350.41;5037190;28;20616;-29
2021/03/26 10:13:21;;;;;;;1999.90;999.90;;;;;;;17.94;65.24;-18384.31;5036179;28;20553;-29
2021/03/26 10:16:10;;;;;;;1999.90;999.90;;;;;;;18.39;58.84;-18396.13;5044195;28;20508;-28
2021/03/26 10:19:05;;;;;;;1999.90;999.90;;;;;;;17.21;62.52;-18365.19;5037336;28;20277;-29
2021/03/26 10:21:56;;;;;;;1999.90;999.90;;;;;;;16.54;66.07;-18347.63;5036385;28;20305;-29
2021/03/26 10:24:47;;;;;;;1999.90;999.90;;;;;;;17.52;65.03;-18373.28;5036850;28;20232;-28
2021/03/26 10:27:40;;;;;;;1999.90;999.90;;;;;;;17.33;62.65;-18368.25;5042642;28;20206;-29
2021/03/26 10:30:36;;;;;;;1999.90;999.90;;;;;;;16.51;62.60;-18346.81;5035208;28;20203;-28
2021/03/26 10:33:33;;;;;;;1999.90;999.90;;;;;;;16.26;64.70;-18340.31;5040036;28;20283;-28
2021/03/26 10:36:29;;;;;;;1999.90;999.90;;;;;;;17.03;62.82;-18360.53;5039442;28;20628;-30
2021/03/26 10:39:26;;;;;;;1999.90;999.90;;;;;;;17.30;59.97;-18367.56;5036256;28;20232;-28
2021/03/26 10:42:39;;;;;;;1999.90;999.90;;;;;;;17.27;60.73;-18366.78;5036312;28;20205;-28
2021/03/26 10:45:55;;;;;;;1999.90;999.90;;;;;;;18.52;56.55;-18399.47;5038677;28;20216;-29
2021/03/26 10:49:04;;;;;;;1999.90;999.90;;;;;;;16.88;62.20;-18356.53;5040562;28;20219;-28
2021/03/26 10:51:58;;;;;;;1999.90;999.90;;;;;;;15.51;65.56;-18320.59;5042304;28;20204;-29
2021/03/26 10:54:51;;;;;;;1999.90;999.90;;;;;;;15.53;67.45;-18321.13;5040551;28;20225;-28
2021/03/26 10:57:44;;;;;;;1999.90;999.90;;;;;;;17.15;60.80;-18363.59;5040896;28;20307;-28
2021/03/26 11:00:36;;;;;;;1999.90;999.90;;;;;;;16.57;62.29;-18348.44;5039382;28;20502;-28
2021/03/26 11:03:26;;;;;;;1999.90;999.90;;;;;;;16.77;61.51;-18353.63;5040051;28;20615;-29
2021/03/26 11:06:32;;;;;;;1999.90;999.90;;;;;;;17.04;59.97;-18360.78;5039502;28;20206;-29
2021/03/26 11:09:22;;;;;;;1999.90;999.90;;;;;;;15.76;66.13;-18327.28;5043250;28;20198;-28
2021/03/26 11:12:27;;;;;;;1999.90;999.90;;;;;;;16.13;64.49;-18336.97;5039542;28;20197;-29
2021/03/26 11:15:17;;;;;;;1999.90;999.90;;;;;;;17.01;62.40;-18360.00;5039644;28;20229;-29
2021/03/26 11:18:13;;;;;;;1999.90;999.90;;;;;;;16.97;59.49;-18358.81;5046054;28;20202;-29
2021/03/26 11:21:02;;;;;;;1999.90;999.90;;;;;;;17.98;57.57;-18385.25;5038778;28;20228;-29
2021/03/26 11:23:58;;;;;;;1999.90;999.90;;;;;;;17.48;58.73;-18372.34;5039101;28;20274;-29
2021/03/26 11:26:49;;;;;;;1999.90;999.90;;;;;;;17.61;56.34;-18375.69;5039451;28;20200;-29
2021/03/26 11:29:38;;;;;;;1999.90;999.90;;;;;;;16.33;62.72;-18342.03;5039256;28;20492;-29
2021/03/26 11:32:32;;;;;;;1999.90;999.90;;;;;;;17.84;58.05;-18381.66;5039878;28;20205;-29
2021/03/26 11:35:23;;;;;;;1999.90;999.90;;;;;;;17.72;55.61;-18378.47;5039267;28;20289;-29
2021/03/26 11:38:16;;;;;;;1999.90;999.90;;;;;;;17.85;55.24;-18381.94;5038436;28;20275;-29
2021/03/26 11:41:19;;;;;;;1999.90;999.90;;;;;;;18.06;54.19;-18387.38;5019850;28;20235;-30
2021/03/26 11:44:21;;;;;;;1999.90;999.90;;;;;;;17.76;54.06;-18379.53;5035144;28;20263;-29
2021/03/26 11:47:40;;;;;;;1999.90;999.90;;;;;;;18.68;51.33;-18403.72;5039785;28;20209;-30
2021/03/26 11:50:35;;;;;;;1999.90;999.90;;;;;;;17.79;52.09;-18380.47;5023331;28;20229;-29
2021/03/26 11:53:42;;;;;;;1999.90;999.90;;;;;;;18.03;50.62;-18386.56;5035719;28;20605;-29
2021/03/26 11:56:49;;;;;;;1999.90;999.90;;;;;;;17.39;52.13;-18369.84;5030597;28;20213;-29
2021/03/26 11:59:57;;;;;;;1999.90;999.90;;;;;;;17.31;52.12;-18367.84;5036701;28;20623;-29
2021/03/26 12:02:59;;;;;;;1999.90;999.90;;;;;;;17.08;52.93;-18361.72;5034632;28;20204;-29
2021/03/26 12:06:04;;;;;;;1999.90;999.90;;;;;;;18.52;52.34;-18399.47;5034719;28;20209;-30
2021/03/26 12:08:58;;;;;;;1999.90;999.90;;;;;;;18.35;53.07;-18394.94;5024410;28;20638;-29
2021/03/26 12:12:06;;;;;;;1999.90;999.90;;;;;;;17.70;51.89;-18377.94;5029108;28;20202;-29
2021/03/26 12:14:59;;;;;;;1999.90;999.90;;;;;;;17.47;53.58;-18371.97;5038746;28;20204;-30
2021/03/26 12:18:06;;;;;;;1999.90;999.90;;;;;;;17.36;54.73;-18369.16;5038901;28;20209;-30
2021/03/26 12:21:06;;;;;;;1999.90;999.90;;;;;;;18.64;51.92;-18402.66;5038174;28;20505;-29
2021/03/26 12:24:18;;;;;;;1999.90;999.90;;;;;;;18.70;48.20;-18404.25;5039054;28;20215;-29
2021/03/26 12:27:17;;;;;;;1999.90;999.90;;;;;;;18.40;48.46;-18396.41;5040338;28;20647;-30
2021/03/26 12:30:10;;;;;;;1999.90;999.90;;;;;;;18.05;48.43;-18387.25;5037568;28;20278;-30
2021/03/26 12:33:03;;;;;;;1999.90;999.90;;;;;;;19.06;49.22;-18413.53;5037652;28;20482;-29
2021/03/26 12:35:56;;;;;;;1999.90;999.90;;;;;;;18.57;45.52;-18400.91;5038256;28;20199;-30
2021/03/26 12:39:02;;;;;;;1999.90;999.90;;;;;;;17.98;45.30;-18385.25;5039225;28;20201;-30
2021/03/26 12:41:53;;;;;;;1999.90;999.90;;;;;;;17.72;46.78;-18378.47;5037302;28;20207;-29
2021/03/26 12:44:42;;;;;;;1999.90;999.90;;;;;;;18.12;47.69;-18388.97;5036458;28;20614;-29
2021/03/26 12:47:33;;;;;;;1999.90;999.90;;;;;;;19.71;46.44;-18430.50;5043906;28;20210;-30
2021/03/26 12:50:24;;;;;;;1999.90;999.90;;;;;;;17.87;49.47;-18382.59;5040813;28;20201;-30
2021/03/26 12:53:14;;;;;;;1999.90;999.90;;;;;;;17.38;53.69;-18369.56;5037888;28;20209;-30
2021/03/26 12:56:12;;;;;;;1999.90;999.90;;;;;;;17.41;54.68;-18370.38;5037747;28;20210;-31
2021/03/26 12:59:17;;;;;;;1999.90;999.90;;;;;;;18.14;53.66;-18389.63;5039780;28;20269;-30
2021/03/26 13:02:16;;;;;;;1999.90;999.90;;;;;;;17.33;52.82;-18368.38;5037939;28;20608;-30